Time;durP1;ratioP1;P1;durP2;ratioP2;P2;SDS_P1;SDS_P2;PMS_P1;PMS_P2;Temp;Humidity;BMP_temperature;BMP_pressure;BME280_temperature;BME280_humidity;BME280_pressure;Samples;Min_cycle;Max_cycle;Signal;HPM_P1;HPM_P2
2022/05/03 00:00:17;;;;;;;1999.90;999.90;;;6.60;1.00;;;;;;4991902;28;20463;-75
2022/05/03 00:02:51;;;;;;;1760.55;855.38;;;6.50;1.00;;;;;;4993454;28;20572;-75
2022/05/03 00:05:27;;;;;;;1999.90;999.90;;;6.50;1.00;;;;;;4991018;28;20562;-75
2022/05/03 00:08:03;;;;;;;1999.90;999.90;;;6.50;1.00;;;;;;4975982;28;20058;-75
2022/05/03 00:10:35;;;;;;;1999.90;999.90;;;6.50;1.00;;;;;;4993481;28;20454;-75
2022/05/03 00:13:07;;;;;;;1999.90;999.90;;;6.50;1.00;;;;;;4993398;28;20089;-75
2022/05/03 00:15:38;;;;;;;1999.90;999.90;;;6.40;1.00;;;;;;4992529;28;20162;-75
2022/05/03 00:18:07;;;;;;;1999.90;999.90;;;6.30;1.00;;;;;;4992952;28;20042;-76
2022/05/03 00:20:33;;;;;;;1999.90;999.90;;;6.30;1.00;;;;;;4975369;28;20046;-76
2022/05/03 00:23:00;;;;;;;1999.90;999.90;;;6.30;1.00;;;;;;4993043;28;20042;-76
2022/05/03 00:25:27;;;;;;;1999.90;999.90;;;6.30;1.00;;;;;;4992624;28;20104;-76
2022/05/03 00:27:53;;;;;;;1999.90;999.90;;;6.30;1.00;;;;;;4992424;28;20533;-76
2022/05/03 00:30:19;;;;;;;1999.90;999.90;;;6.20;1.00;;;;;;4992467;28;20050;-74
2022/05/03 00:32:47;;;;;;;1999.90;999.90;;;6.20;1.00;;;;;;4992764;28;20093;-74
2022/05/03 00:35:13;;;;;;;1999.90;999.90;;;6.20;1.00;;;;;;4992179;28;20070;-75
2022/05/03 00:37:38;;;;;;;1999.90;999.90;;;6.20;1.00;;;;;;4992908;28;20050;-75
2022/05/03 00:40:05;;;;;;;1999.90;999.90;;;6.20;1.00;;;;;;4992578;28;20046;-78
2022/05/03 00:42:44;;;;;;;1999.90;999.90;;;6.10;1.00;;;;;;4992770;28;20046;-75
2022/05/03 00:45:25;;;;;;;1999.90;999.90;;;6.10;1.00;;;;;;4992373;28;20038;-75
2022/05/03 00:48:06;;;;;;;1999.90;999.90;;;6.00;1.00;;;;;;4992552;28;20085;-75
2022/05/03 00:50:34;;;;;;;1999.90;999.90;;;6.00;1.00;;;;;;4992443;28;20077;-75
2022/05/03 00:53:09;;;;;;;1999.90;999.90;;;6.00;1.00;;;;;;4975155;28;20088;-75
2022/05/03 00:56:04;;;;;;;1999.90;999.90;;;6.00;1.00;;;;;;4992802;28;20058;-74
2022/05/03 00:58:30;;;;;;;1999.90;999.90;;;5.90;1.00;;;;;;4974871;28;20554;-77
2022/05/03 01:01:03;;;;;;;1999.90;999.90;;;5.90;1.00;;;;;;4992482;28;20137;-75
2022/05/03 01:03:40;;;;;;;1999.90;999.90;;;5.90;1.00;;;;;;4992349;28;20046;-74
2022/05/03 01:06:22;;;;;;;1999.90;999.90;;;6.00;1.00;;;;;;4992398;28;20145;-75
2022/05/03 01:08:56;;;;;;;1999.90;999.90;;;5.90;1.00;;;;;;4992535;28;20583;-74
2022/05/03 01:11:46;;;;;;;1999.90;999.90;;;6.00;1.00;;;;;;4992173;28;20428;-75
2022/05/03 01:14:53;;;;;;;1999.90;999.90;;;6.20;1.00;;;;;;4992368;28;20347;-75
2022/05/03 01:17:43;;;;;;;1999.90;999.90;;;5.90;1.00;;;;;;4912987;29;20052;-75
2022/05/03 01:20:11;;;;;;;1999.90;999.90;;;5.80;1.00;;;;;;4991889;28;20176;-75
2022/05/03 01:23:01;;;;;;;1999.90;999.90;;;5.80;1.00;;;;;;4975177;28;20518;-75
2022/05/03 01:25:45;;;;;;;1999.90;999.90;;;5.90;1.00;;;;;;4992032;28;20058;-75
2022/05/03 01:28:20;;;;;;;1999.90;999.90;;;5.80;1.00;;;;;;4995182;28;20415;-76
2022/05/03 01:30:49;;;;;;;1999.90;999.90;;;5.80;1.00;;;;;;4995058;28;20121;-75
2022/05/03 01:33:31;;;;;;;1999.90;999.90;;;5.80;1.00;;;;;;4995925;28;20138;-75
2022/05/03 01:36:02;;;;;;;1999.90;999.90;;;5.80;1.00;;;;;;4996082;28;20042;-75
2022/05/03 01:38:38;;;;;;;1999.90;999.90;;;5.80;1.00;;;;;;4995908;28;20050;-75
2022/05/03 01:41:28;;;;;;;1999.90;999.90;;;5.80;1.00;;;;;;4996114;28;20142;-75
2022/05/03 01:44:09;;;;;;;1999.90;999.90;;;5.70;1.00;;;;;;4996078;28;20046;-75
2022/05/03 01:46:36;;;;;;;1999.90;999.90;;;5.70;1.00;;;;;;4995589;28;20129;-75
2022/05/03 01:52:19;;;;;;;1999.90;999.90;;;5.70;1.00;;;;;;4995628;28;20050;-75
2022/05/03 01:55:21;;;;;;;1999.90;999.90;;;5.60;1.00;;;;;;4995427;28;20054;-75
2022/05/03 01:58:19;;;;;;;1999.90;999.90;;;5.60;1.00;;;;;;4958544;28;20058;-75
2022/05/03 02:01:00;;;;;;;1999.90;999.90;;;5.50;1.00;;;;;;4962306;28;20385;-75
2022/05/03 02:03:34;;;;;;;1999.90;999.90;;;5.30;1.00;;;;;;4995377;28;20376;-75
2022/05/03 02:06:07;;;;;;;1999.90;999.90;;;6.50;1.00;;;;;;4995198;28;20309;-75
2022/05/03 02:08:52;;;;;;;1999.90;999.90;;;5.80;1.00;;;;;;4995256;28;20403;-75
2022/05/03 02:11:37;;;;;;;1999.90;999.90;;;5.70;1.00;;;;;;4994063;28;20046;-75
2022/05/03 02:17:16;;;;;;;1999.90;999.90;;;5.30;1.00;;;;;;4995434;28;20152;-75
2022/05/03 02:19:54;;;;;;;1999.90;999.90;;;7.20;1.00;;;;;;4995068;28;20080;-76
2022/05/03 02:22:38;;;;;;;1999.90;999.90;;;5.30;1.00;;;;;;4994945;28;20047;-75
2022/05/03 02:25:36;;;;;;;1999.90;999.90;;;5.30;1.00;;;;;;4995233;28;20442;-75
2022/05/03 02:28:21;;;;;;;1999.90;999.90;;;5.30;1.00;;;;;;4995129;28;20054;-75
2022/05/03 02:30:51;;;;;;;1999.90;999.90;;;6.80;1.00;;;;;;4977963;28;20133;-75
2022/05/03 02:33:25;;;;;;;1999.90;999.90;;;5.10;1.00;;;;;;4994780;28;20053;-75
2022/05/03 02:35:55;;;;;;;1999.90;999.90;;;5.20;1.00;;;;;;4994562;28;20039;-76
2022/05/03 02:38:30;;;;;;;1999.90;999.90;;;4.90;1.00;;;;;;4993253;28;20051;-75
2022/05/03 02:41:00;;;;;;;1999.90;999.90;;;6.20;1.00;;;;;;4977570;28;20065;-75
2022/05/03 02:43:28;;;;;;;1999.90;999.90;;;5.30;1.00;;;;;;4994532;28;20384;-74
2022/05/03 02:46:03;;;;;;;1947.95;965.67;;;5.90;1.00;;;;;;4994608;28;20142;-75
2022/05/03 02:48:38;;;;;;;1999.90;999.90;;;5.10;1.00;;;;;;4994573;28;20440;-75
2022/05/03 02:51:07;;;;;;;1999.90;999.90;;;5.00;1.00;;;;;;4977135;28;20050;-75
2022/05/03 02:53:35;;;;;;;1999.90;999.90;;;3.20;1.00;;;;;;4977272;28;20081;-75
2022/05/03 02:56:50;;;;;;;1999.90;999.90;;;4.90;1.00;;;;;;4994550;28;20474;-75
2022/05/03 03:02:51;;;;;;;1999.90;999.90;;;5.90;1.00;;;;;;4994187;28;20487;-75
2022/05/03 03:05:21;;;;;;;1999.90;999.90;;;4.90;1.00;;;;;;4993961;28;20053;-75
2022/05/03 03:07:55;;;;;;;1999.90;999.90;;;4.90;1.00;;;;;;4994409;28;20450;-75
2022/05/03 03:10:23;;;;;;;1999.90;999.90;;;6.30;1.00;;;;;;4976708;28;20046;-76
2022/05/03 03:13:15;;;;;;;1999.90;999.90;;;4.90;1.00;;;;;;4994371;28;20062;-75
2022/05/03 03:15:41;;;;;;;1999.90;999.90;;;4.80;1.00;;;;;;4993730;28;20535;-75
2022/05/03 03:18:13;;;;;;;1999.90;999.90;;;6.70;1.00;;;;;;4994243;28;20133;-75
2022/05/03 03:20:44;;;;;;;1999.90;999.90;;;4.90;1.00;;;;;;4960225;28;20042;-75
2022/05/03 03:23:15;;;;;;;1999.90;999.90;;;4.80;1.00;;;;;;4994118;28;20047;-75
2022/05/03 03:25:43;;;;;;;1999.90;999.90;;;4.90;1.00;;;;;;4993613;28;20059;-75
2022/05/03 03:28:11;;;;;;;;;;;5.00;1.00;;;;;;4994500;28;20053;-75
2022/05/03 03:30:39;;;;;;;1999.90;999.90;;;5.60;1.00;;;;;;4976448;28;20064;-75
2022/05/03 03:33:07;;;;;;;1999.90;999.90;;;7.00;1.00;;;;;;4994089;28;20149;-75
2022/05/03 03:35:34;;;;;;;1999.90;999.90;;;6.20;1.00;;;;;;4975998;28;20062;-75
2022/05/03 03:38:01;;;;;;;1999.90;999.90;;;7.10;1.00;;;;;;4976757;28;20059;-75
2022/05/03 03:40:27;;;;;;;1999.90;999.90;;;5.50;1.00;;;;;;4976237;28;20050;-75
2022/05/03 03:42:54;;;;;;;1999.90;999.90;;;5.60;1.00;;;;;;4976392;28;20058;-75
2022/05/03 03:45:20;;;;;;;1999.90;999.90;;;5.70;1.00;;;;;;4993667;28;20034;-75
2022/05/03 03:47:47;;;;;;;1999.90;999.90;;;5.80;1.00;;;;;;4992197;28;20046;-75
2022/05/03 03:50:13;;;;;;;1999.90;999.90;;;6.50;1.00;;;;;;4975741;28;20443;-75
2022/05/03 03:52:41;;;;;;;1999.90;999.90;;;6.30;1.00;;;;;;4976049;28;20666;-75
2022/05/03 03:55:07;;;;;;;;;;;6.20;1.00;;;;;;4993684;28;20097;-75
2022/05/03 03:57:35;;;;;;;1999.90;999.90;;;6.30;1.00;;;;;;4993311;28;19926;-75
2022/05/03 04:00:03;;;;;;;1999.90;999.90;;;7.80;1.00;;;;;;4976331;28;20050;-75
2022/05/03 04:02:28;;;;;;;1999.90;999.90;;;6.50;1.00;;;;;;4993054;28;20043;-76
2022/05/03 04:04:55;;;;;;;1999.90;999.90;;;7.10;1.00;;;;;;4991845;28;20060;-76
2022/05/03 04:07:20;;;;;;;1999.90;999.90;;;6.60;1.00;;;;;;4993548;28;20050;-76
2022/05/03 04:09:46;;;;;;;1999.90;999.90;;;8.30;1.00;;;;;;4992998;28;20500;-77
2022/05/03 04:12:12;;;;;;;1999.90;999.90;;;6.80;1.00;;;;;;4993303;28;20038;-76
2022/05/03 04:14:38;;;;;;;1999.90;999.90;;;8.20;1.00;;;;;;4993020;28;20042;-78
2022/05/03 04:17:03;;;;;;;1999.90;999.90;;;6.90;1.00;;;;;;4976334;28;20050;-77
2022/05/03 04:19:29;;;;;;;1999.90;999.90;;;6.90;1.00;;;;;;4993297;28;20050;-76
2022/05/03 04:21:55;;;;;;;1698.88;811.92;;;8.30;1.00;;;;;;4993295;28;20046;-76
2022/05/03 04:24:21;;;;;;;1999.90;999.90;;;7.50;1.00;;;;;;4993758;28;20149;-76
2022/05/03 04:26:47;;;;;;;1999.90;999.90;;;7.10;1.00;;;;;;4993213;28;20051;-75
2022/05/03 04:29:13;;;;;;;1999.90;999.90;;;7.10;1.00;;;;;;4975994;28;20061;-76
2022/05/03 04:31:39;;;;;;;1999.90;999.90;;;7.00;1.00;;;;;;4992918;28;20125;-77
2022/05/03 04:34:05;;;;;;;1999.90;999.90;;;7.00;1.00;;;;;;4975895;28;20133;-76
2022/05/03 04:36:32;;;;;;;1999.90;999.90;;;7.00;1.00;;;;;;4991946;28;20053;-76
2022/05/03 04:38:59;;;;;;;1999.90;999.90;;;6.90;1.00;;;;;;4992926;28;20053;-76
2022/05/03 04:41:25;;;;;;;1999.90;999.90;;;7.70;1.00;;;;;;4993022;28;20073;-76
2022/05/03 04:43:51;;;;;;;446.27;147.98;;;7.10;1.00;;;;;;4992497;28;20046;-76
2022/05/03 04:46:18;;;;;;;1999.90;999.90;;;7.40;1.00;;;;;;4992801;28;20050;-76
2022/05/03 04:48:44;;;;;;;1999.90;999.90;;;7.50;1.00;;;;;;4975044;28;20121;-76
2022/05/03 04:51:20;;;;;;;597.78;169.48;;;8.10;1.00;;;;;;4992274;28;20098;-76
2022/05/03 04:53:46;;;;;;;1999.90;999.90;;;7.50;1.00;;;;;;4991944;28;20467;-76
2022/05/03 04:56:30;;;;;;;844.90;207.55;;;7.60;1.00;;;;;;4992489;28;20089;-76
2022/05/03 04:58:56;;;;;;;330.52;99.85;;;7.80;1.00;;;;;;4992521;28;20057;-76
2022/05/03 05:01:23;;;;;;;1999.90;999.90;;;7.90;1.00;;;;;;4992126;28;20058;-76
2022/05/03 05:03:49;;;;;;;1999.90;999.90;;;7.90;1.00;;;;;;4974733;28;20049;-74
2022/05/03 05:06:15;;;;;;;1999.90;999.90;;;8.00;1.00;;;;;;4992198;28;20056;-75
2022/05/03 05:08:43;;;;;;;1596.72;775.80;;;8.10;1.00;;;;;;4975028;28;20046;-75
2022/05/03 05:11:09;;;;;;;1999.90;999.90;;;8.10;1.00;;;;;;4992606;28;20043;-74
2022/05/03 05:13:36;;;;;;;1999.90;999.90;;;8.20;1.00;;;;;;4992215;28;20109;-75
2022/05/03 05:16:03;;;;;;;1999.90;999.90;;;9.90;1.00;;;;;;4992487;28;20046;-75
2022/05/03 05:18:29;;;;;;;1677.82;803.67;;;8.30;1.00;;;;;;4992618;28;20085;-75
2022/05/03 05:20:55;;;;;;;1999.90;999.90;;;8.40;1.00;;;;;;4991686;28;20116;-74
2022/05/03 05:23:21;;;;;;;1594.70;777.22;;;8.50;1.00;;;;;;4959360;28;20046;-75
2022/05/03 05:25:48;;;;;;;1999.90;999.90;;;8.70;1.00;;;;;;4992122;28;20049;-75
2022/05/03 05:28:14;;;;;;;1999.90;999.90;;;8.50;1.00;;;;;;4992368;28;20046;-75
2022/05/03 05:30:43;;;;;;;1999.90;999.90;;;9.30;1.00;;;;;;4991997;28;20081;-75
2022/05/03 05:33:10;;;;;;;1999.90;999.90;;;8.60;1.00;;;;;;4992370;28;20046;-75
2022/05/03 05:35:35;;;;;;;1999.90;999.90;;;8.70;1.00;;;;;;4974386;28;20390;-76
2022/05/03 05:38:02;;;;;;;1999.90;999.90;;;9.50;1.00;;;;;;4975028;28;20046;-75
2022/05/03 05:40:27;;;;;;;1999.90;999.90;;;8.70;1.00;;;;;;4992371;28;20050;-75
2022/05/03 05:42:54;;;;;;;1999.90;999.90;;;8.80;1.00;;;;;;4991899;28;20511;-75
2022/05/03 05:45:19;;;;;;;1999.90;999.90;;;9.90;1.00;;;;;;4992285;28;20096;-75
2022/05/03 05:47:45;;;;;;;1999.90;999.90;;;8.80;1.00;;;;;;4991815;28;20475;-75
2022/05/03 05:50:11;;;;;;;1999.90;999.90;;;8.90;1.00;;;;;;4991642;28;20400;-75
2022/05/03 05:55:21;;;;;;;1999.90;999.90;;;8.90;1.00;;;;;;4991616;28;20503;-75
2022/05/03 05:57:47;;;;;;;1999.90;999.90;;;9.00;1.00;;;;;;4942561;28;20054;-73
2022/05/03 06:00:13;;;;;;;1999.90;999.90;;;9.10;1.00;;;;;;4991757;28;20090;-75
2022/05/03 06:02:39;;;;;;;1999.90;999.90;;;9.20;1.00;;;;;;4991624;28;20057;-75
2022/05/03 06:05:06;;;;;;;1999.90;999.90;;;9.50;1.00;;;;;;4991584;28;20552;-75
2022/05/03 06:07:32;;;;;;;1999.90;999.90;;;9.30;1.00;;;;;;4974770;28;20432;-75
2022/05/03 06:09:57;;;;;;;1999.90;999.90;;;9.30;1.00;;;;;;4991396;28;20042;-75
2022/05/03 06:12:23;;;;;;;1999.90;999.90;;;9.40;1.00;;;;;;4992029;28;20050;-75
2022/05/03 06:14:50;;;;;;;1999.90;999.90;;;9.50;1.00;;;;;;4977786;28;20070;-76
2022/05/03 06:17:16;;;;;;;1999.90;999.90;;;9.50;1.00;;;;;;4995522;28;20444;-75
2022/05/03 06:19:41;;;;;;;1658.00;796.05;;;9.60;1.00;;;;;;4977511;28;20039;-76
2022/05/03 06:22:08;;;;;;;1999.90;999.90;;;9.70;1.00;;;;;;4995215;28;20046;-75
2022/05/03 06:24:33;;;;;;;1999.90;999.90;;;10.10;1.00;;;;;;4995191;28;20129;-75
2022/05/03 06:26:59;;;;;;;1999.90;999.90;;;9.70;1.00;;;;;;4994792;28;20449;-75
2022/05/03 06:29:25;;;;;;;1999.90;999.90;;;9.70;1.00;;;;;;4995300;28;20050;-74
2022/05/03 06:31:51;;;;;;;1999.90;999.90;;;9.70;1.00;;;;;;4994782;28;20431;-74
2022/05/03 06:34:17;;;;;;;1999.90;999.90;;;10.50;1.00;;;;;;4994738;28;20081;-74
2022/05/03 06:36:42;;;;;;;1999.90;999.90;;;9.90;1.00;;;;;;4994460;28;20132;-75
2022/05/03 06:39:08;;;;;;;1719.65;817.95;;;9.80;1.00;;;;;;4994918;28;20474;-75
2022/05/03 06:41:34;;;;;;;1780.53;829.55;;;10.00;1.00;;;;;;4994933;28;20115;-75
2022/05/03 06:44:00;;;;;;;1999.90;999.90;;;9.80;1.00;;;;;;4977120;28;20047;-76
2022/05/03 06:46:26;;;;;;;1999.90;999.90;;;9.80;1.00;;;;;;4977516;28;20058;-75
2022/05/03 06:48:52;;;;;;;1999.90;999.90;;;9.80;1.00;;;;;;4977148;28;20093;-75
2022/05/03 06:51:19;;;;;;;976.85;315.25;;;9.80;1.00;;;;;;4994514;28;20089;-75
2022/05/03 06:53:45;;;;;;;1999.90;999.90;;;9.80;1.00;;;;;;4994082;28;20042;-75
2022/05/03 06:56:10;;;;;;;1999.90;999.90;;;9.80;1.00;;;;;;4994665;28;20054;-75
2022/05/03 06:58:36;;;;;;;1999.90;999.90;;;9.80;1.00;;;;;;4994353;28;20376;-75
2022/05/03 07:01:10;;;;;;;1751.28;821.85;;;9.90;1.00;;;;;;4960855;28;20128;-74
2022/05/03 07:03:36;;;;;;;1999.90;999.90;;;9.80;1.00;;;;;;4977257;28;20129;-74
2022/05/03 07:06:02;;;;;;;1620.25;418.52;;;9.90;1.00;;;;;;4993730;28;20089;-75
2022/05/03 07:08:29;;;;;;;1894.35;870.15;;;9.90;1.00;;;;;;4977219;28;20192;-74
2022/05/03 07:10:54;;;;;;;1734.55;821.08;;;9.80;1.00;;;;;;4994092;28;20149;-75
2022/05/03 07:13:23;;;;;;;1999.90;999.90;;;11.20;1.00;;;;;;4994847;28;20232;-75
2022/05/03 07:15:59;;;;;;;1776.97;833.50;;;10.00;1.00;;;;;;4993909;28;20144;-75
2022/05/03 07:23:54;;;;;;;1299.20;387.95;;;10.00;1.00;;;;;;4993587;28;20105;-75
2022/05/03 07:26:22;;;;;;;1251.18;341.35;;;10.00;1.00;;;;;;4993946;28;20042;-75
2022/05/03 07:28:48;;;;;;;1571.25;391.98;;;10.00;1.00;;;;;;4960300;28;20133;-74
2022/05/03 07:31:18;;;;;;;1840.93;470.35;;;10.00;1.00;;;;;;4994179;28;20046;-75
2022/05/03 07:33:44;;;;;;;1552.68;348.00;;;10.00;1.00;;;;;;4993988;28;20189;-75
2022/05/03 07:36:10;;;;;;;1958.63;486.13;;;10.00;1.00;;;;;;4993410;28;20551;-74
2022/05/03 07:38:37;;;;;;;1999.90;638.60;;;10.00;1.00;;;;;;4994031;28;20407;-74
2022/05/03 07:41:03;;;;;;;1992.65;535.83;;;10.00;1.00;;;;;;4993593;28;20072;-75
2022/05/03 07:43:29;;;;;;;1999.90;590.70;;;10.50;1.00;;;;;;4976533;28;20073;-75
2022/05/03 07:45:55;;;;;;;1999.90;531.33;;;10.00;1.00;;;;;;4993280;28;20476;-75
2022/05/03 07:48:21;;;;;;;1999.90;693.30;;;10.10;1.00;;;;;;4993363;28;20046;-75
2022/05/03 07:50:47;;;;;;;1999.90;448.92;;;10.40;1.00;;;;;;4993123;28;20050;-75
2022/05/03 07:53:13;;;;;;;1999.90;743.58;;;10.30;1.00;;;;;;4993652;28;20069;-75
2022/05/03 07:55:39;;;;;;;1940.60;529.13;;;10.10;1.00;;;;;;4993470;28;20137;-75
2022/05/03 07:58:06;;;;;;;1999.90;811.65;;;10.10;1.00;;;;;;4993256;28;20053;-75
2022/05/03 08:00:32;;;;;;;1999.90;721.00;;;10.10;1.00;;;;;;4960159;28;20533;-75
2022/05/03 08:02:57;;;;;;;1999.90;814.95;;;10.20;1.00;;;;;;4993247;28;20124;-75
2022/05/03 08:05:24;;;;;;;1999.90;874.47;;;10.30;1.00;;;;;;4992910;28;20078;-75
2022/05/03 08:07:50;;;;;;;1999.90;671.38;;;10.40;1.00;;;;;;4993085;28;20125;-76
2022/05/03 08:10:16;;;;;;;1999.90;652.28;;;10.40;1.00;;;;;;4993417;28;20148;-75
2022/05/03 08:12:43;;;;;;;1999.90;691.45;;;10.50;1.00;;;;;;4975974;28;20057;-76
2022/05/03 08:15:09;;;;;;;1999.90;789.17;;;10.50;1.00;;;;;;4993314;28;20426;-75
2022/05/03 08:17:35;;;;;;;1999.90;907.50;;;10.40;1.00;;;;;;4993229;28;20438;-75
2022/05/03 08:20:01;;;;;;;1999.90;922.65;;;10.50;1.00;;;;;;4992395;28;20147;-75
2022/05/03 08:22:26;;;;;;;1999.90;669.13;;;10.50;1.00;;;;;;4993005;28;20097;-74
2022/05/03 08:24:53;;;;;;;1999.90;675.55;;;10.60;1.00;;;;;;4992422;28;20092;-75
2022/05/03 08:27:19;;;;;;;1999.90;632.67;;;10.50;1.00;;;;;;4992912;28;20057;-75
2022/05/03 08:29:45;;;;;;;1999.90;773.63;;;11.20;1.00;;;;;;4975185;28;20043;-77
2022/05/03 08:32:12;;;;;;;1999.90;917.42;;;10.80;1.00;;;;;;4975484;28;20160;-75
2022/05/03 08:34:37;;;;;;;1999.90;764.45;;;11.00;1.00;;;;;;4975734;28;20057;-75
2022/05/03 08:42:32;;;;;;;1999.90;637.20;;;10.90;1.00;;;;;;4992827;28;20054;-75
2022/05/03 08:44:59;;;;;;;1999.90;640.95;;;10.90;1.00;;;;;;4992363;28;20053;-75
2022/05/03 08:47:27;;;;;;;1287.60;339.88;;;11.00;1.00;;;;;;4992735;28;20046;-75
2022/05/03 08:50:07;;;;;;;1999.90;787.53;;;11.10;1.00;;;;;;4991943;28;20046;-75
2022/05/03 08:52:54;;;;;;;1848.18;823.20;;;11.10;1.00;;;;;;4991601;28;20074;-75
2022/05/03 08:55:21;;;;;;;1999.90;703.22;;;11.10;1.00;;;;;;4975230;28;20058;-74
2022/05/03 08:57:48;;;;;;;1999.90;999.90;;;11.20;1.00;;;;;;4992345;28;20050;-75
2022/05/03 09:00:17;;;;;;;1369.75;389.17;;;11.20;1.00;;;;;;4974989;28;20058;-74
2022/05/03 09:02:46;;;;;;;1836.78;536.08;;;10.10;1.00;;;;;;4992631;28;20054;-74
2022/05/03 09:05:13;;;;;;;1810.03;827.15;;;11.40;1.00;;;;;;4991870;28;20051;-75
2022/05/03 09:07:44;;;;;;;1999.90;999.90;;;11.50;1.00;;;;;;4991414;28;20429;-74
2022/05/03 09:10:16;;;;;;;1999.90;798.67;;;11.50;1.00;;;;;;4992160;28;20130;-74
2022/05/03 09:12:44;;;;;;;1999.90;999.90;;;11.50;1.00;;;;;;4992527;28;20112;-74
2022/05/03 09:15:10;;;;;;;;;;;12.70;1.00;;;;;;4992556;28;20047;-74
2022/05/03 09:17:38;;;;;;;1999.90;999.90;;;11.60;1.00;;;;;;4975190;28;19922;-74
2022/05/03 09:25:56;;;;;;;1999.90;999.90;;;11.70;1.00;;;;;;4991909;28;20399;-75
2022/05/03 09:28:23;;;;;;;1999.90;999.90;;;11.70;1.00;;;;;;4992497;28;20046;-75
2022/05/03 09:30:51;;;;;;;1999.90;999.90;;;11.80;1.00;;;;;;4991806;28;20361;-78
2022/05/03 09:33:19;;;;;;;1991.32;960.50;;;11.70;1.00;;;;;;4975053;28;20046;-75
2022/05/03 09:35:45;;;;;;;1983.97;989.22;;;11.80;1.00;;;;;;4992114;28;20042;-75
2022/05/03 09:38:11;;;;;;;1999.90;999.90;;;11.80;1.00;;;;;;4942989;28;20097;-75
2022/05/03 09:40:41;;;;;;;1893.97;999.90;;;12.20;1.00;;;;;;4974972;28;20131;-75
2022/05/03 09:43:07;;;;;;;1176.90;956.13;;;11.90;1.00;;;;;;4991951;28;20133;-75
2022/05/03 09:45:33;;;;;;;1386.50;988.50;;;12.00;1.00;;;;;;4992136;28;20046;-75
2022/05/03 09:47:59;;;;;;;1664.10;999.90;;;12.10;1.00;;;;;;4993138;28;20454;-76
2022/05/03 09:50:28;;;;;;;1999.90;999.90;;;12.20;1.00;;;;;;4978470;28;20501;-75
2022/05/03 09:52:54;;;;;;;1475.53;997.75;;;12.30;1.00;;;;;;4994740;28;20090;-75
2022/05/03 09:55:32;;;;;;;1999.90;999.90;;;12.40;1.00;;;;;;4978187;28;20046;-75
2022/05/03 09:58:03;;;;;;;991.10;884.00;;;12.50;1.00;;;;;;4978292;28;20058;-76
2022/05/03 10:00:36;;;;;;;1588.35;999.90;;;12.60;1.00;;;;;;4995922;28;20478;-76
2022/05/03 10:03:03;;;;;;;1720.40;999.90;;;12.70;1.00;;;;;;4995697;28;20061;-77
2022/05/03 10:05:29;;;;;;;857.63;779.90;;;12.90;1.00;;;;;;4995434;28;20130;-75
2022/05/03 10:07:56;;;;;;;1244.40;931.95;;;13.10;1.00;;;;;;4977777;28;20050;-76
2022/05/03 10:10:24;;;;;;;796.10;716.28;;;13.40;1.00;;;;;;4995622;28;20132;-75
2022/05/03 10:12:51;;;;;;;597.58;547.03;;;13.50;1.00;;;;;;4978255;28;20129;-75
2022/05/03 10:21:21;;;;;;;1021.00;919.28;;;14.00;1.00;;;;;;4994519;28;20402;-75
2022/05/03 10:24:07;;;;;;;904.03;810.33;;;14.20;99.90;;;;;;4995349;28;20050;-76
2022/05/03 10:27:01;;;;;;;744.80;682.15;;;14.20;99.90;;;;;;4995224;28;20133;-75
2022/05/03 10:29:33;;;;;;;919.20;827.95;;;14.30;99.90;;;;;;4995211;28;20200;-75
2022/05/03 10:32:03;;;;;;;1052.10;898.88;;;14.40;99.90;;;;;;4977168;28;20053;-76
2022/05/03 10:34:45;;;;;;;951.83;849.78;;;14.70;99.90;;;;;;4994750;28;20042;-76
2022/05/03 10:37:16;;;;;;;721.13;663.28;;;14.90;99.90;;;;;;4994712;28;20046;-76
2022/05/03 10:40:09;;;;;;;787.95;714.65;;;14.90;99.90;;;;;;4994998;28;20061;-76
2022/05/03 10:42:35;;;;;;;767.42;699.55;;;14.50;99.90;;;;;;4991940;28;20082;-75
2022/05/03 10:45:10;;;;;;;863.65;779.97;;;14.60;99.90;;;;;;4960907;28;20353;-76
2022/05/03 10:47:48;;;;;;;881.60;789.13;;;14.70;99.90;;;;;;4961177;28;20606;-75
2022/05/03 10:50:16;;;;;;;1011.40;895.40;;;15.10;99.90;;;;;;4992775;28;20137;-75
2022/05/03 10:53:06;;;;;;;823.78;748.97;;;15.40;99.90;;;;;;4994711;28;20770;-75
2022/05/03 10:55:33;;;;;;;806.88;738.47;;;15.50;99.90;;;;;;4973202;28;20492;-76
2022/05/03 10:58:19;;;;;;;848.92;776.28;;;15.90;99.90;;;;;;4977094;28;20053;-76
2022/05/03 11:01:18;;;;;;;797.95;732.42;;;16.00;99.90;;;;;;4976225;28;20538;-75
2022/05/03 11:03:47;;;;;;;736.22;677.28;;;15.80;99.90;;;;;;4994545;28;20058;-77
2022/05/03 11:06:19;;;;;;;725.65;667.75;;;15.80;99.90;;;;;;4976285;28;20054;-76
2022/05/03 11:11:53;;;;;;;664.28;611.08;;;15.70;99.90;;;;;;4977249;28;20063;-75
2022/05/03 11:14:24;;;;;;;763.42;696.13;;;15.70;99.90;;;;;;4992745;28;20391;-76
2022/05/03 11:17:03;;;;;;;751.00;689.45;;;15.90;99.90;;;;;;4994317;28;20057;-75
2022/05/03 11:19:30;;;;;;;636.40;584.28;;;16.10;99.90;;;;;;4977012;28;20054;-76
2022/05/03 11:21:58;;;;;;;706.30;644.17;;;16.50;99.90;;;;;;4993890;28;20050;-76
2022/05/03 11:24:27;;;;;;;732.40;669.78;;;16.70;99.90;;;;;;4976565;28;20490;-75
2022/05/03 11:26:58;;;;;;;707.58;651.53;;;16.90;99.90;;;;;;4976330;28;20061;-75
2022/05/03 11:29:28;;;;;;;733.17;671.17;;;16.90;99.90;;;;;;4993396;28;20051;-75
2022/05/03 11:31:55;;;;;;;832.35;765.47;;;17.00;99.90;;;;;;4976236;28;20051;-74
2022/05/03 11:34:21;;;;;;;581.13;540.75;;;16.90;99.90;;;;;;4993612;28;20136;-74
2022/05/03 11:36:50;;;;;;;476.50;443.10;;;17.10;99.90;;;;;;4993379;28;20133;-75
2022/05/03 11:39:16;;;;;;;362.92;339.80;;;17.30;99.90;;;;;;4993656;28;20050;-75
2022/05/03 11:41:43;;;;;;;165.95;154.68;;;17.60;99.90;;;;;;4993784;28;20073;-75
2022/05/03 11:44:09;;;;;;;209.55;196.55;;;17.90;99.90;;;;;;4993564;28;20121;-74
2022/05/03 11:46:37;;;;;;;296.35;275.20;;;17.80;99.90;;;;;;4976678;28;20077;-74
2022/05/03 11:49:05;;;;;;;347.85;320.80;;;17.70;99.90;;;;;;4993587;28;20145;-77
2022/05/03 11:57:26;;;;;;;266.70;250.07;;;19.00;99.90;;;;;;4993606;28;20046;-75
2022/05/03 11:59:55;;;;;;;249.85;233.75;;;20.00;99.90;;;;;;4993778;28;20140;-75
2022/05/03 12:02:36;;;;;;;300.33;282.50;;;20.60;99.90;;;;;;4993134;28;20046;-75
2022/05/03 12:05:16;;;;;;;390.02;364.08;;;20.70;99.90;;;;;;4992139;28;20046;-75
2022/05/03 12:07:55;;;;;;;376.42;350.70;;;20.40;99.90;;;;;;4993774;28;20085;-75
2022/05/03 12:10:34;;;;;;;547.30;507.45;;;20.30;99.90;;;;;;4992699;28;20045;-75
2022/05/03 12:13:06;;;;;;;;;;;19.80;99.90;;;;;;4993628;28;20488;-75
2022/05/03 12:15:35;;;;;;;437.73;410.40;;;19.60;99.90;;;;;;4993366;28;19929;-75
2022/05/03 12:18:15;;;;;;;437.70;408.67;;;19.50;99.90;;;;;;4993411;28;20046;-75
2022/05/03 12:20:57;;;;;;;368.38;345.10;;;19.30;99.90;;;;;;4992949;28;20062;-75
2022/05/03 12:23:38;;;;;;;440.98;411.77;;;19.10;99.90;;;;;;4992937;28;20077;-74
2022/05/03 12:26:25;;;;;;;392.00;366.83;;;19.00;99.90;;;;;;4992800;28;20101;-74
2022/05/03 12:28:59;;;;;;;368.90;346.23;;;19.00;99.90;;;;;;4993051;28;20372;-74
2022/05/03 12:31:35;;;;;;;390.50;365.48;;;19.00;99.90;;;;;;4991364;28;20047;-74
2022/05/03 12:34:02;;;;;;;407.55;378.30;;;18.90;99.90;;;;;;4993162;28;20101;-74
2022/05/03 12:36:41;;;;;;;337.10;317.58;;;18.90;99.90;;;;;;4975098;28;20407;-74
2022/05/03 12:39:14;;;;;;;418.20;390.17;;;18.90;99.90;;;;;;4992982;28;20050;-74
2022/05/03 12:41:42;;;;;;;326.10;305.60;;;18.80;99.90;;;;;;4992892;28;20129;-75
2022/05/03 12:44:12;;;;;;;368.88;345.38;;;18.60;99.90;;;;;;4975494;28;20050;-78
2022/05/03 12:46:39;;;;;;;255.93;240.38;;;18.40;99.90;;;;;;4975021;28;20452;-74
2022/05/03 12:49:12;;;;;;;263.08;247.27;;;18.60;99.90;;;;;;4992639;28;20057;-74
2022/05/03 12:51:39;;;;;;;255.68;240.60;;;18.60;99.90;;;;;;4992538;28;20117;-75
2022/05/03 12:54:07;;;;;;;306.58;286.63;;;18.30;99.90;;;;;;4992511;28;20050;-75
2022/05/03 12:59:18;;;;;;;145.63;137.30;;;18.30;99.90;;;;;;4992362;28;20454;-75
2022/05/03 13:01:46;;;;;;;258.65;242.60;;;18.30;99.90;;;;;;4975351;28;20479;-75
2022/05/03 13:04:12;;;;;;;;;;;18.20;99.90;;;;;;4975193;28;20058;-76
2022/05/03 13:06:38;;;;;;;241.13;227.13;;;18.10;99.90;;;;;;4991903;28;20291;-75
2022/05/03 13:09:04;;;;;;;283.23;264.25;;;18.00;99.90;;;;;;4992174;28;20046;-74
2022/05/03 13:11:31;;;;;;;191.95;181.32;;;18.00;99.90;;;;;;4992084;28;20306;-74
2022/05/03 13:13:57;;;;;;;242.95;228.80;;;18.00;99.90;;;;;;4975193;28;20050;-74
2022/05/03 13:16:23;;;;;;;233.85;220.00;;;18.00;99.90;;;;;;4974850;28;20080;-75
2022/05/03 13:18:48;;;;;;;182.32;171.98;;;17.90;99.90;;;;;;4992601;28;20495;-75